Adelaide, Australia
Current Conditions -  °F | °C
As of 1:00 PM on Saturday 22 Nov 2014 (Local Time) from YPAD Reporting Station
Thunderstorm Thunderstorm  
Wind Chill: 72°   Ceiling: 6000
Heat Index: 72°   Visibility: 5mi
Dew Point: 64°   Wind: 7mph
Humidity: 78%   Direction: 240°WSW
Pressure: 29.77"   Gusts: NA
Location:  34.93°S, 138.6°E
Report Text: YPAD 220300Z 24006KT 8000 -TSRA BKN060CB 22/18 Q1008 FM0310 34013KT 9999 -SHRA BKN100 FM0400 23018KT 9999 -SHRA BKN100 INTER 0310/0400 5000 TSRA SCT100CB
Loading
Personal Weather Stations






























Interactive Weather Map New forecast layout! Learn more

10-Day Weather Forecast

Advertisements
Track Severe Weather on mobile